createdAt,value
2022-08-03T00:02:16.904Z,18.40
2022-08-03T00:04:43.969Z,18.30
2022-08-03T00:07:10.725Z,18.30
2022-08-03T00:09:37.563Z,18.30
2022-08-03T00:12:04.676Z,18.30
2022-08-03T00:14:31.559Z,18.20
2022-08-03T00:16:58.286Z,18.10
2022-08-03T00:19:25.037Z,18.10
2022-08-03T00:21:52.922Z,18.00
2022-08-03T00:24:20.045Z,17.90
2022-08-03T00:26:47.142Z,17.80
2022-08-03T00:29:13.854Z,17.80
2022-08-03T00:31:52.183Z,17.80
2022-08-03T00:34:34.600Z,17.80
2022-08-03T00:37:06.552Z,17.80
2022-08-03T00:39:33.268Z,17.70
2022-08-03T00:42:04.392Z,17.70
2022-08-03T00:44:39.650Z,17.70
2022-08-03T00:47:07.040Z,17.60
2022-08-03T00:49:34.182Z,17.60
2022-08-03T00:52:01.748Z,17.50
2022-08-03T00:54:40.283Z,17.50
2022-08-03T00:57:08.253Z,17.40
2022-08-03T00:59:35.122Z,17.50
2022-08-03T01:02:02.252Z,17.40
2022-08-03T01:04:28.877Z,17.40
2022-08-03T01:07:17.352Z,17.40
2022-08-03T01:10:06.565Z,17.40
2022-08-03T01:12:44.229Z,17.40
2022-08-03T01:15:28.920Z,17.30
2022-08-03T01:18:15.624Z,17.30
2022-08-03T01:20:48.490Z,17.30
2022-08-03T01:23:23.634Z,17.30
2022-08-03T01:26:41.114Z,17.20
2022-08-03T01:29:52.365Z,17.20
2022-08-03T01:32:59.421Z,17.10
2022-08-03T01:35:39.211Z,17.10
2022-08-03T01:38:18.650Z,17.10
2022-08-03T01:40:47.629Z,17.10
2022-08-03T01:44:01.255Z,17.00
2022-08-03T01:46:06.800Z,16.90
2022-08-03T01:48:36.736Z,16.90
2022-08-03T01:51:03.852Z,16.80
2022-08-03T01:53:33.616Z,16.90
2022-08-03T01:56:02.178Z,16.90
2022-08-03T01:58:30.873Z,16.80
2022-08-03T02:01:00.969Z,16.80
2022-08-03T02:03:29.731Z,16.80
2022-08-03T02:06:18.138Z,16.70
2022-08-03T02:08:46.848Z,16.70
2022-08-03T02:11:13.713Z,16.80
2022-08-03T02:13:41.476Z,16.80
2022-08-03T02:16:09.178Z,16.80
2022-08-03T02:18:39.476Z,16.70
2022-08-03T02:21:11.062Z,16.70
2022-08-03T02:23:38.725Z,16.70
2022-08-03T02:26:09.635Z,16.60
2022-08-03T02:28:40.705Z,16.70
2022-08-03T02:31:14.783Z,16.70
2022-08-03T02:33:45.955Z,16.60
2022-08-03T02:36:15.931Z,16.50
2022-08-03T02:38:49.693Z,16.50
2022-08-03T02:41:22.820Z,16.50
2022-08-03T02:44:05.869Z,16.50
2022-08-03T02:46:38.893Z,16.50
2022-08-03T02:49:41.076Z,16.50
2022-08-03T02:51:55.895Z,16.40
2022-08-03T02:54:25.004Z,16.40
2022-08-03T02:56:54.179Z,16.30
2022-08-03T02:59:22.151Z,16.30
2022-08-03T03:01:49.600Z,16.20
2022-08-03T03:04:17.119Z,16.20
2022-08-03T03:06:44.480Z,16.30
2022-08-03T03:09:15.080Z,16.30
2022-08-03T03:11:44.099Z,16.30
2022-08-03T03:14:12.995Z,16.30
2022-08-03T03:16:42.060Z,16.20
2022-08-03T03:19:10.108Z,16.20
2022-08-03T03:21:37.420Z,16.20
2022-08-03T03:24:06.397Z,16.20
2022-08-03T03:26:35.352Z,16.20
2022-08-03T03:29:03.556Z,16.20
2022-08-03T03:31:30.437Z,16.20
2022-08-03T03:34:00.288Z,16.30
2022-08-03T03:36:27.061Z,16.20
2022-08-03T03:38:53.924Z,16.10
2022-08-03T03:41:20.761Z,16.10
2022-08-03T03:43:49.528Z,16.10
2022-08-03T03:46:18.299Z,16.00
2022-08-03T03:48:45.235Z,15.90
2022-08-03T03:51:12.795Z,15.80
2022-08-03T03:53:39.592Z,15.90
2022-08-03T03:56:06.399Z,15.80
2022-08-03T03:58:33.360Z,15.80
2022-08-03T04:01:01.178Z,15.90
2022-08-03T04:03:28.105Z,15.80
2022-08-03T04:06:13.463Z,15.80
2022-08-03T04:08:59.092Z,15.80
2022-08-03T04:11:54.379Z,15.80
2022-08-03T04:14:29.649Z,15.80
2022-08-03T04:17:03.612Z,15.80
2022-08-03T04:19:45.624Z,15.90
2022-08-03T04:22:18.183Z,15.80
2022-08-03T04:24:52.090Z,15.90
2022-08-03T04:27:23.353Z,15.90
2022-08-03T04:29:53.215Z,15.90
2022-08-03T04:32:23.490Z,15.90
2022-08-03T04:34:50.173Z,15.90
2022-08-03T04:37:43.314Z,15.90
2022-08-03T04:40:16.301Z,15.90
2022-08-03T04:42:49.367Z,15.90
2022-08-03T04:45:17.486Z,16.00
2022-08-03T04:47:44.462Z,16.00
2022-08-03T04:50:13.506Z,16.10
2022-08-03T04:52:42.072Z,16.10
2022-08-03T04:55:09.222Z,16.20
2022-08-03T04:57:35.950Z,16.20
2022-08-03T05:00:04.638Z,16.20
2022-08-03T05:02:32.139Z,16.20
2022-08-03T05:04:59.353Z,16.20
2022-08-03T05:07:26.065Z,16.30
2022-08-03T05:10:15.147Z,16.50
2022-08-03T05:12:44.258Z,16.50
2022-08-03T05:15:11.246Z,16.60
2022-08-03T05:17:37.891Z,16.70
2022-08-03T05:20:05.534Z,16.70
2022-08-03T05:22:32.226Z,16.80
2022-08-03T05:24:58.956Z,16.90
2022-08-03T05:27:26.414Z,17.00
2022-08-03T05:29:53.098Z,17.10
2022-08-03T05:32:20.010Z,17.20
2022-08-03T05:34:46.799Z,17.30
2022-08-03T05:37:13.730Z,17.50
2022-08-03T05:39:40.428Z,17.70
2022-08-03T05:42:07.199Z,17.90
2022-08-03T05:44:33.902Z,18.20
2022-08-03T05:47:06.700Z,18.40
2022-08-03T05:49:33.483Z,18.60
2022-08-03T05:52:13.369Z,19.00
2022-08-03T05:54:56.961Z,19.30
2022-08-03T05:57:25.886Z,19.90
2022-08-03T05:59:57.837Z,20.40
2022-08-03T06:02:26.920Z,21.20
2022-08-03T06:04:54.330Z,22.90
2022-08-03T06:07:21.060Z,25.00
2022-08-03T06:10:36.897Z,27.20
2022-08-03T06:12:37.141Z,29.10
2022-08-03T06:15:05.121Z,31.20
2022-08-03T06:17:37.191Z,32.60
2022-08-03T06:20:06.085Z,33.00
2022-08-03T06:22:32.745Z,33.00
2022-08-03T06:27:36.647Z,34.00
2022-08-03T06:30:05.306Z,33.20
2022-08-03T06:32:32.129Z,33.40
2022-08-03T06:34:59.142Z,33.00
2022-08-03T06:37:27.056Z,32.80
2022-08-03T06:39:54.283Z,34.20
2022-08-03T06:42:21.327Z,35.30
2022-08-03T06:44:49.918Z,35.30
2022-08-03T06:47:17.112Z,34.60
2022-08-03T06:49:43.887Z,34.90
2022-08-03T06:55:06.357Z,35.10
2022-08-03T06:57:33.023Z,35.80
2022-08-03T07:00:10.995Z,36.40
2022-08-03T07:02:42.488Z,36.40
2022-08-03T07:05:10.424Z,38.10
2022-08-03T07:07:38.029Z,39.50
2022-08-03T07:10:06.697Z,40.10
2022-08-03T07:12:35.270Z,39.90
2022-08-03T07:15:03.715Z,39.40
2022-08-03T07:17:33.352Z,40.30
2022-08-03T07:20:02.073Z,40.20
2022-08-03T07:22:28.863Z,40.40
2022-08-03T07:24:56.911Z,40.20
2022-08-03T07:27:23.703Z,40.30
2022-08-03T07:32:19.181Z,41.40
2022-08-03T07:34:46.157Z,41.50
2022-08-03T07:37:19.012Z,41.90
2022-08-03T07:39:45.770Z,41.40
2022-08-03T07:42:12.710Z,41.40
2022-08-03T07:44:40.425Z,41.40
2022-08-03T07:47:07.305Z,41.10
2022-08-03T07:49:41.010Z,41.70
2022-08-03T07:52:26.525Z,42.00
2022-08-03T07:54:55.363Z,41.70
2022-08-03T07:57:22.035Z,41.90
2022-08-03T08:00:01.413Z,41.70
2022-08-03T08:02:29.176Z,41.10
2022-08-03T08:04:55.836Z,40.50
2022-08-03T08:07:26.155Z,40.80
2022-08-03T08:09:52.880Z,41.50
2022-08-03T08:12:19.832Z,40.80
2022-08-03T08:14:46.777Z,41.20
2022-08-03T08:17:14.274Z,41.50
2022-08-03T08:19:47.515Z,41.50
2022-08-03T08:22:23.500Z,41.00
2022-08-03T08:24:59.290Z,40.70
2022-08-03T08:27:26.183Z,40.70
2022-08-03T08:29:55.304Z,40.90
2022-08-03T08:32:24.270Z,41.10
2022-08-03T08:34:50.963Z,40.80
2022-08-03T08:37:17.738Z,41.00
2022-08-03T08:39:44.383Z,40.60
2022-08-03T08:42:11.121Z,40.80
2022-08-03T08:44:37.750Z,41.10
2022-08-03T08:47:04.714Z,41.90
2022-08-03T08:52:01.674Z,42.00
2022-08-03T08:54:29.705Z,41.80
2022-08-03T08:57:02.194Z,41.50
2022-08-03T08:59:47.967Z,41.40
2022-08-03T09:02:17.092Z,42.00
2022-08-03T09:04:45.496Z,41.40
2022-08-03T09:07:20.030Z,41.00
2022-08-03T09:10:10.592Z,41.60
2022-08-03T09:12:53.400Z,41.80
2022-08-03T09:15:24.958Z,41.50
2022-08-03T09:17:56.310Z,41.70
2022-08-03T09:20:25.068Z,41.90
2022-08-03T09:23:01.574Z,42.30
2022-08-03T09:25:40.508Z,42.60
2022-08-03T09:28:52.579Z,42.30
2022-08-03T09:31:02.494Z,42.90
2022-08-03T09:33:36.050Z,42.70
2022-08-03T09:36:03.053Z,43.10
2022-08-03T09:38:30.101Z,41.40
2022-08-03T09:41:00.313Z,40.90
2022-08-03T09:43:28.533Z,41.90
2022-08-03T09:46:07.179Z,42.80
2022-08-03T09:48:35.391Z,43.90
2022-08-03T09:51:13.123Z,44.30
2022-08-03T09:53:58.867Z,44.00
2022-08-03T09:56:47.371Z,44.00
2022-08-03T09:59:28.505Z,43.20
2022-08-03T10:01:58.003Z,43.10
2022-08-03T10:04:25.083Z,42.80
2022-08-03T10:07:10.894Z,42.30
2022-08-03T10:09:38.184Z,42.10
2022-08-03T10:12:13.191Z,40.50
2022-08-03T10:14:45.252Z,40.50
2022-08-03T10:17:12.490Z,40.60
2022-08-03T10:19:40.955Z,40.60
2022-08-03T10:22:14.361Z,40.00
2022-08-03T10:24:54.059Z,40.10
2022-08-03T10:27:23.907Z,39.10
2022-08-03T10:29:55.745Z,37.70
2022-08-03T10:32:31.460Z,36.70
2022-08-03T10:35:29.468Z,35.10
2022-08-03T10:38:07.567Z,34.50
2022-08-03T10:40:52.611Z,34.00
2022-08-03T10:43:28.871Z,33.60
2022-08-03T10:45:56.680Z,33.40
2022-08-03T10:48:23.986Z,33.30
2022-08-03T10:50:51.093Z,33.10
2022-08-03T10:53:38.776Z,32.90
2022-08-03T10:56:35.674Z,32.60
2022-08-03T10:59:11.763Z,32.50
2022-08-03T11:01:59.893Z,32.50
2022-08-03T11:04:29.718Z,32.50
2022-08-03T11:07:15.514Z,32.40
2022-08-03T11:09:44.957Z,32.20
2022-08-03T11:12:31.263Z,32.30
2022-08-03T11:15:05.935Z,32.30
2022-08-03T11:17:46.238Z,32.20
2022-08-03T11:20:47.088Z,32.20
2022-08-03T11:23:16.125Z,32.10
2022-08-03T11:26:11.608Z,32.20
2022-08-03T11:28:39.860Z,32.00
2022-08-03T11:31:48.814Z,32.00
2022-08-03T11:34:14.366Z,31.90
2022-08-03T11:37:21.441Z,32.00
2022-08-03T11:39:54.546Z,32.10
2022-08-03T11:42:24.227Z,32.10
2022-08-03T11:44:53.514Z,32.10
2022-08-03T11:47:22.197Z,31.90
2022-08-03T11:49:51.177Z,31.90
2022-08-03T11:52:19.398Z,32.20
2022-08-03T11:54:57.101Z,32.10
2022-08-03T11:59:17.516Z,32.00
2022-08-03T12:00:32.268Z,32.00
2022-08-03T12:03:09.421Z,32.10
2022-08-03T12:05:52.319Z,32.10
2022-08-03T12:08:33.216Z,32.20
2022-08-03T12:11:05.554Z,32.20
2022-08-03T12:14:45.593Z,32.10
2022-08-03T12:16:37.604Z,32.10
2022-08-03T12:19:06.787Z,31.70
2022-08-03T12:21:34.563Z,31.70
2022-08-03T12:24:04.514Z,31.80
2022-08-03T12:26:58.323Z,31.90
2022-08-03T12:29:27.232Z,31.90
2022-08-03T12:31:56.041Z,31.90
2022-08-03T12:34:23.151Z,31.90
2022-08-03T12:36:59.071Z,31.80
2022-08-03T12:39:31.011Z,31.80
2022-08-03T12:41:59.301Z,31.90
2022-08-03T12:44:35.450Z,32.10
2022-08-03T12:47:06.537Z,32.10
2022-08-03T12:49:48.636Z,32.30
2022-08-03T12:52:17.209Z,32.30
2022-08-03T12:54:59.168Z,32.30
2022-08-03T12:57:26.193Z,32.30
2022-08-03T12:59:55.759Z,32.30
2022-08-03T13:02:25.807Z,32.30
2022-08-03T13:04:54.766Z,32.40
2022-08-03T13:07:22.768Z,32.40
2022-08-03T13:09:53.073Z,32.40
2022-08-03T13:12:22.832Z,32.40
2022-08-03T13:15:00.319Z,32.50
2022-08-03T13:17:28.081Z,32.60
2022-08-03T13:19:54.936Z,32.60
2022-08-03T13:22:26.011Z,32.50
2022-08-03T13:24:58.313Z,32.30
2022-08-03T13:28:03.952Z,32.30
2022-08-03T13:30:13.652Z,32.30
2022-08-03T13:32:45.233Z,32.30
2022-08-03T13:35:12.538Z,32.40
2022-08-03T13:37:43.462Z,32.40
2022-08-03T13:40:15.566Z,32.50
2022-08-03T13:42:42.293Z,32.50
2022-08-03T13:45:10.415Z,32.60
2022-08-03T13:47:37.729Z,32.60
2022-08-03T13:50:05.049Z,32.70
2022-08-03T13:52:34.153Z,32.80
2022-08-03T13:55:03.562Z,32.80
2022-08-03T13:58:11.350Z,32.80
2022-08-03T14:00:27.775Z,32.80
2022-08-03T14:03:09.136Z,32.90
2022-08-03T14:05:40.727Z,32.90
2022-08-03T14:08:08.109Z,32.80
2022-08-03T14:10:37.504Z,32.90
2022-08-03T14:13:05.792Z,32.90
2022-08-03T14:15:38.172Z,32.90
2022-08-03T14:18:15.406Z,33.00
2022-08-03T14:20:50.180Z,32.80
2022-08-03T14:23:19.174Z,32.90
2022-08-03T14:25:52.052Z,33.00
2022-08-03T14:28:24.549Z,33.10
2022-08-03T14:30:52.925Z,33.00
2022-08-03T14:33:20.323Z,33.00
2022-08-03T14:35:47.450Z,33.10
2022-08-03T14:38:14.411Z,33.10
2022-08-03T14:40:41.398Z,33.20
2022-08-03T14:43:08.065Z,33.30
2022-08-03T14:45:34.718Z,33.20
2022-08-03T14:50:24.524Z,33.30
2022-08-03T14:50:51.781Z,33.20
2022-08-03T14:53:19.587Z,33.40
2022-08-03T14:55:50.983Z,33.50
2022-08-03T14:58:21.278Z,33.50
2022-08-03T15:00:49.238Z,33.50
2022-08-03T15:03:16.782Z,33.40
2022-08-03T15:05:44.427Z,33.40
2022-08-03T15:08:11.330Z,33.40
2022-08-03T15:10:40.540Z,33.40
2022-08-03T15:13:10.753Z,33.50
2022-08-03T15:15:37.388Z,33.50
2022-08-03T15:18:04.316Z,33.60
2022-08-03T15:20:42.994Z,33.60
2022-08-03T15:23:11.256Z,33.60
2022-08-03T15:26:32.398Z,33.40
2022-08-03T15:28:26.629Z,33.40
2022-08-03T15:30:53.635Z,33.50
2022-08-03T15:33:20.583Z,33.50
2022-08-03T15:35:47.532Z,33.60
2022-08-03T15:38:14.604Z,33.60
2022-08-03T15:40:41.801Z,33.70
2022-08-03T15:43:08.560Z,33.70
2022-08-03T15:45:36.261Z,33.70
2022-08-03T15:48:06.939Z,33.70
2022-08-03T15:50:34.484Z,33.60
2022-08-03T15:53:01.118Z,33.50
2022-08-03T15:55:27.944Z,33.50
2022-08-03T15:59:09.240Z,33.60
2022-08-03T16:00:43.062Z,33.50
2022-08-03T16:03:10.488Z,33.40
2022-08-03T16:05:37.173Z,33.30
2022-08-03T16:08:06.226Z,33.20
2022-08-03T16:10:34.663Z,33.20
2022-08-03T16:13:01.406Z,33.20
2022-08-03T16:15:28.247Z,33.00
2022-08-03T16:17:54.989Z,33.10
2022-08-03T16:20:30.896Z,33.00
2022-08-03T16:23:10.643Z,32.90
2022-08-03T16:25:44.224Z,32.80
2022-08-03T16:28:16.897Z,32.90
2022-08-03T16:30:46.420Z,33.00
2022-08-03T16:33:16.786Z,32.90
2022-08-03T16:35:46.186Z,33.00
2022-08-03T16:38:18.608Z,33.00
2022-08-03T16:40:47.484Z,32.80
2022-08-03T16:43:17.992Z,32.80
2022-08-03T16:45:46.704Z,32.80
2022-08-03T16:48:14.252Z,32.70
2022-08-03T16:50:41.414Z,32.70
2022-08-03T16:53:09.833Z,32.60
2022-08-03T16:55:51.740Z,32.50
2022-08-03T16:58:34.233Z,32.60
2022-08-03T17:01:24.270Z,32.50
2022-08-03T17:04:03.364Z,32.50
2022-08-03T17:06:36.506Z,32.50
2022-08-03T17:09:18.163Z,32.30
2022-08-03T17:11:47.870Z,32.40
2022-08-03T17:14:22.473Z,32.30
2022-08-03T17:16:53.994Z,32.30
2022-08-03T17:19:23.776Z,32.30
2022-08-03T17:22:09.503Z,32.10
2022-08-03T17:24:42.252Z,32.10
2022-08-03T17:27:23.091Z,31.90
2022-08-03T17:30:09.927Z,31.90
2022-08-03T17:32:42.762Z,31.80
2022-08-03T17:35:20.745Z,31.80
2022-08-03T17:37:57.929Z,31.70
2022-08-03T17:40:25.606Z,31.60
2022-08-03T17:42:52.961Z,31.60
2022-08-03T17:45:20.580Z,31.60
2022-08-03T17:47:57.389Z,31.50
2022-08-03T17:50:35.342Z,31.50
2022-08-03T17:53:15.363Z,31.50
2022-08-03T17:56:40.436Z,31.40
2022-08-03T17:59:50.930Z,31.30
2022-08-03T18:03:00.873Z,31.30
2022-08-03T18:06:10.723Z,31.10
2022-08-03T18:08:43.427Z,31.00
2022-08-03T18:11:16.103Z,30.90
2022-08-03T18:14:03.957Z,30.80
2022-08-03T18:17:00.375Z,30.60
2022-08-03T18:20:01.328Z,30.30
2022-08-03T18:22:20.236Z,30.10
2022-08-03T18:24:49.694Z,29.80
2022-08-03T18:27:17.042Z,29.50
2022-08-03T18:29:47.018Z,29.30
2022-08-03T18:32:17.024Z,29.00
2022-08-03T18:34:53.422Z,28.80
2022-08-03T18:37:25.587Z,28.60
2022-08-03T18:39:58.305Z,28.40
2022-08-03T18:42:25.845Z,28.10
2022-08-03T18:44:56.546Z,27.80
2022-08-03T18:47:52.496Z,27.60
2022-08-03T18:50:50.624Z,27.30
2022-08-03T18:54:03.365Z,27.10
2022-08-03T18:56:52.019Z,27.00
2022-08-03T18:59:30.883Z,26.80
2022-08-03T19:02:06.889Z,26.60
2022-08-03T19:04:47.478Z,26.50
2022-08-03T19:07:22.254Z,26.30
2022-08-03T19:10:00.161Z,26.10
2022-08-03T19:12:51.788Z,26.10
2022-08-03T19:15:36.078Z,25.90
2022-08-03T19:18:08.847Z,25.80
2022-08-03T19:20:37.966Z,25.60
2022-08-03T19:23:04.725Z,25.50
2022-08-03T19:25:39.279Z,25.50
2022-08-03T19:30:46.209Z,25.40
2022-08-03T19:33:15.336Z,25.30
2022-08-03T19:35:55.262Z,25.20
2022-08-03T19:38:28.755Z,25.00
2022-08-03T19:41:03.012Z,24.90
2022-08-03T19:43:53.766Z,24.80
2022-08-03T19:46:31.617Z,24.80
2022-08-03T19:49:04.939Z,24.80
2022-08-03T19:52:01.597Z,24.70
2022-08-03T19:54:54.106Z,24.60
2022-08-03T19:57:24.790Z,24.50
2022-08-03T19:59:54.378Z,24.40
2022-08-03T20:05:14.762Z,24.10
2022-08-03T20:07:47.633Z,24.10
2022-08-03T20:10:18.220Z,24.00
2022-08-03T20:12:47.153Z,24.00
2022-08-03T20:15:14.401Z,23.90
2022-08-03T20:17:56.373Z,23.90
2022-08-03T20:20:36.509Z,23.90
2022-08-03T20:23:13.724Z,23.70
2022-08-03T20:25:57.407Z,23.60
2022-08-03T20:28:50.612Z,23.50
2022-08-03T20:31:19.259Z,23.40
2022-08-03T20:33:49.244Z,23.40
2022-08-03T20:36:17.987Z,23.30
2022-08-03T20:38:48.514Z,23.30
2022-08-03T20:41:18.964Z,23.20
2022-08-03T20:43:48.267Z,23.20
2022-08-03T20:46:31.074Z,23.20
2022-08-03T20:49:06.478Z,23.20
2022-08-03T20:51:49.543Z,23.20
2022-08-03T20:54:23.125Z,23.20
2022-08-03T20:59:38.496Z,23.10
2022-08-03T21:05:03.565Z,23.00
2022-08-03T21:08:05.782Z,22.90
2022-08-03T21:13:03.417Z,24.20
2022-08-03T21:13:13.804Z,22.90
2022-08-03T21:13:33.413Z,22.90
2022-08-03T21:16:12.455Z,22.80
2022-08-03T21:18:52.785Z,22.70
2022-08-03T21:21:22.831Z,22.60
2022-08-03T21:23:54.848Z,22.60
2022-08-03T21:26:25.550Z,22.50
2022-08-03T21:28:54.981Z,22.50
2022-08-03T21:31:25.705Z,22.50
2022-08-03T21:34:05.170Z,22.40
2022-08-03T21:36:35.560Z,22.30
2022-08-03T21:39:07.027Z,22.30
2022-08-03T21:41:35.531Z,22.30
2022-08-03T21:44:04.017Z,22.30
2022-08-03T21:46:36.731Z,22.30
2022-08-03T21:50:04.560Z,22.40
2022-08-03T21:51:59.204Z,22.30
2022-08-03T21:54:36.489Z,22.30
2022-08-03T21:57:14.148Z,22.30
2022-08-03T21:59:51.861Z,22.30
2022-08-03T22:02:24.237Z,22.30
2022-08-03T22:04:56.325Z,22.30
2022-08-03T22:07:35.960Z,22.20
2022-08-03T22:10:05.885Z,22.00
2022-08-03T22:12:33.047Z,22.00
2022-08-03T22:15:02.377Z,21.80
2022-08-03T22:17:55.916Z,21.80
2022-08-03T22:20:24.397Z,21.70
2022-08-03T22:22:56.943Z,21.70
2022-08-03T22:25:32.260Z,21.70
2022-08-03T22:28:05.341Z,21.70
2022-08-03T22:30:33.101Z,21.80
2022-08-03T22:33:01.417Z,21.70
2022-08-03T22:35:29.590Z,21.60
2022-08-03T22:37:58.755Z,21.60
2022-08-03T22:40:26.781Z,21.60
2022-08-03T22:42:54.332Z,21.50
2022-08-03T22:46:08.521Z,21.60
2022-08-03T22:48:08.458Z,21.70
2022-08-03T22:50:35.777Z,21.70
2022-08-03T22:53:03.200Z,21.60
2022-08-03T22:55:30.042Z,21.60
2022-08-03T22:57:56.844Z,21.40
2022-08-03T23:00:24.550Z,21.40
2022-08-03T23:02:54.218Z,21.30
2022-08-03T23:06:01.320Z,21.30
2022-08-03T23:08:15.264Z,21.20
2022-08-03T23:10:47.228Z,21.20
2022-08-03T23:13:17.632Z,21.20
2022-08-03T23:15:56.945Z,21.20
2022-08-03T23:18:28.735Z,21.30
2022-08-03T23:20:59.518Z,21.30
2022-08-03T23:23:29.259Z,21.30
2022-08-03T23:26:13.407Z,21.20
2022-08-03T23:28:42.054Z,21.10
2022-08-03T23:31:09.002Z,21.00
2022-08-03T23:33:38.938Z,20.90
2022-08-03T23:36:20.205Z,20.80
2022-08-03T23:38:54.415Z,20.80
2022-08-03T23:41:21.991Z,20.90
2022-08-03T23:43:52.001Z,20.90
2022-08-03T23:46:23.901Z,21.00
2022-08-03T23:48:51.020Z,20.90
2022-08-03T23:51:46.569Z,20.90
2022-08-03T23:54:34.850Z,20.80
2022-08-03T23:57:29.711Z,20.70
